sensor_id;sensor_type;location;lat;lon;timestamp;temperature;humidity
8332;DHT22;4203;48.144;14.118;2023-05-07T00:00:30;12.90;99.90
8332;DHT22;4203;48.144;14.118;2023-05-07T00:03:00;12.90;99.90
8332;DHT22;4203;48.144;14.118;2023-05-07T00:05:28;12.90;99.90
8332;DHT22;4203;48.144;14.118;2023-05-07T00:07:55;12.90;99.90
8332;DHT22;4203;48.144;14.118;2023-05-07T00:10:25;12.80;99.90
8332;DHT22;4203;48.144;14.118;2023-05-07T00:12:52;12.90;99.90
8332;DHT22;4203;48.144;14.118;2023-05-07T00:15:23;12.90;99.90
8332;DHT22;4203;48.144;14.118;2023-05-07T00:17:50;12.80;99.90
8332;DHT22;4203;48.144;14.118;2023-05-07T00:20:17;12.70;99.90
8332;DHT22;4203;48.144;14.118;2023-05-07T00:22:44;12.70;99.90
8332;DHT22;4203;48.144;14.118;2023-05-07T00:25:12;12.60;99.90
8332;DHT22;4203;48.144;14.118;2023-05-07T00:27:45;12.70;99.90
8332;DHT22;4203;48.144;14.118;2023-05-07T00:30:26;12.60;99.90
8332;DHT22;4203;48.144;14.118;2023-05-07T00:32:53;12.60;99.90
8332;DHT22;4203;48.144;14.118;2023-05-07T00:35:21;12.50;99.90
8332;DHT22;4203;48.144;14.118;2023-05-07T00:37:49;12.50;99.90
8332;DHT22;4203;48.144;14.118;2023-05-07T00:40:18;12.50;99.90
8332;DHT22;4203;48.144;14.118;2023-05-07T00:42:45;12.50;99.90
8332;DHT22;4203;48.144;14.118;2023-05-07T00:45:15;12.50;99.90
8332;DHT22;4203;48.144;14.118;2023-05-07T00:47:44;12.50;99.90
8332;DHT22;4203;48.144;14.118;2023-05-07T00:50:32;12.40;99.90
8332;DHT22;4203;48.144;14.118;2023-05-07T00:53:05;12.30;99.90
8332;DHT22;4203;48.144;14.118;2023-05-07T00:55:42;12.30;99.90
8332;DHT22;4203;48.144;14.118;2023-05-07T00:58:13;12.20;99.90
8332;DHT22;4203;48.144;14.118;2023-05-07T01:00:42;12.20;99.90
8332;DHT22;4203;48.144;14.118;2023-05-07T01:03:11;12.10;99.90
8332;DHT22;4203;48.144;14.118;2023-05-07T01:05:38;12.10;99.90
8332;DHT22;4203;48.144;14.118;2023-05-07T01:08:06;12.00;99.90
8332;DHT22;4203;48.144;14.118;2023-05-07T01:10:45;12.00;99.90
8332;DHT22;4203;48.144;14.118;2023-05-07T01:13:13;12.00;99.90
8332;DHT22;4203;48.144;14.118;2023-05-07T01:15:42;11.90;99.90
8332;DHT22;4203;48.144;14.118;2023-05-07T01:18:11;11.90;99.90
8332;DHT22;4203;48.144;14.118;2023-05-07T01:20:39;11.80;99.90
8332;DHT22;4203;48.144;14.118;2023-05-07T01:23:09;11.70;99.90
8332;DHT22;4203;48.144;14.118;2023-05-07T01:25:37;11.70;99.90
8332;DHT22;4203;48.144;14.118;2023-05-07T01:28:05;11.70;99.90
8332;DHT22;4203;48.144;14.118;2023-05-07T01:30:34;11.70;99.90
8332;DHT22;4203;48.144;14.118;2023-05-07T01:33:04;11.70;99.90
8332;DHT22;4203;48.144;14.118;2023-05-07T01:35:37;11.70;99.90
8332;DHT22;4203;48.144;14.118;2023-05-07T01:38:06;11.70;99.90
8332;DHT22;4203;48.144;14.118;2023-05-07T01:40:43;11.70;99.90
8332;DHT22;4203;48.144;14.118;2023-05-07T01:43:10;11.60;99.90
8332;DHT22;4203;48.144;14.118;2023-05-07T01:45:38;11.60;99.90
8332;DHT22;4203;48.144;14.118;2023-05-07T01:48:07;11.60;99.90
8332;DHT22;4203;48.144;14.118;2023-05-07T01:50:36;11.60;99.90
8332;DHT22;4203;48.144;14.118;2023-05-07T01:53:28;11.50;99.90
8332;DHT22;4203;48.144;14.118;2023-05-07T01:55:56;11.50;99.90
8332;DHT22;4203;48.144;14.118;2023-05-07T01:58:24;11.50;99.90
8332;DHT22;4203;48.144;14.118;2023-05-07T02:00:57;11.40;99.90
8332;DHT22;4203;48.144;14.118;2023-05-07T02:03:24;11.40;99.90
8332;DHT22;4203;48.144;14.118;2023-05-07T02:05:51;11.40;99.90
8332;DHT22;4203;48.144;14.118;2023-05-07T02:08:18;11.40;99.90
8332;DHT22;4203;48.144;14.118;2023-05-07T02:10:46;11.40;99.90
8332;DHT22;4203;48.144;14.118;2023-05-07T02:13:14;11.30;99.90
8332;DHT22;4203;48.144;14.118;2023-05-07T02:15:43;11.30;99.90
8332;DHT22;4203;48.144;14.118;2023-05-07T02:18:16;11.30;99.90
8332;DHT22;4203;48.144;14.118;2023-05-07T02:20:53;11.20;99.90
8332;DHT22;4203;48.144;14.118;2023-05-07T02:23:24;11.20;99.90
8332;DHT22;4203;48.144;14.118;2023-05-07T02:26:13;11.20;99.90
8332;DHT22;4203;48.144;14.118;2023-05-07T02:38:20;11.20;99.90
8332;DHT22;4203;48.144;14.118;2023-05-07T02:40:48;11.20;99.90
8332;DHT22;4203;48.144;14.118;2023-05-07T02:43:16;11.10;99.90
8332;DHT22;4203;48.144;14.118;2023-05-07T02:45:43;11.10;99.90
8332;DHT22;4203;48.144;14.118;2023-05-07T02:48:11;11.10;99.90
8332;DHT22;4203;48.144;14.118;2023-05-07T02:50:38;11.10;99.90
8332;DHT22;4203;48.144;14.118;2023-05-07T02:53:05;11.10;99.90
8332;DHT22;4203;48.144;14.118;2023-05-07T02:55:34;11.10;99.90
8332;DHT22;4203;48.144;14.118;2023-05-07T02:58:02;11.10;99.90
8332;DHT22;4203;48.144;14.118;2023-05-07T03:00:43;11.10;99.90
8332;DHT22;4203;48.144;14.118;2023-05-07T03:03:10;11.00;99.90
8332;DHT22;4203;48.144;14.118;2023-05-07T03:05:37;11.00;99.90
8332;DHT22;4203;48.144;14.118;2023-05-07T03:08:05;11.00;99.90
8332;DHT22;4203;48.144;14.118;2023-05-07T03:10:42;11.30;99.90
8332;DHT22;4203;48.144;14.118;2023-05-07T03:13:10;11.00;99.90
8332;DHT22;4203;48.144;14.118;2023-05-07T03:15:37;10.90;99.90
8332;DHT22;4203;48.144;14.118;2023-05-07T03:18:05;10.90;99.90
8332;DHT22;4203;48.144;14.118;2023-05-07T03:20:43;10.60;99.90
8332;DHT22;4203;48.144;14.118;2023-05-07T03:23:10;9.90;99.90
8332;DHT22;4203;48.144;14.118;2023-05-07T03:25:38;10.10;99.90
8332;DHT22;4203;48.144;14.118;2023-05-07T03:28:09;10.80;99.90
8332;DHT22;4203;48.144;14.118;2023-05-07T03:31:03;11.80;99.90
8332;DHT22;4203;48.144;14.118;2023-05-07T03:34:00;10.90;99.90
8332;DHT22;4203;48.144;14.118;2023-05-07T03:50:57;10.80;99.90
8332;DHT22;4203;48.144;14.118;2023-05-07T03:54:29;10.70;99.90
8332;DHT22;4203;48.144;14.118;2023-05-07T04:31:15;11.50;99.90
8332;DHT22;4203;48.144;14.118;2023-05-07T04:36:10;11.60;99.90
8332;DHT22;4203;48.144;14.118;2023-05-07T04:38:38;11.70;99.90
8332;DHT22;4203;48.144;14.118;2023-05-07T04:41:06;11.70;99.90
8332;DHT22;4203;48.144;14.118;2023-05-07T04:43:34;11.80;99.90
8332;DHT22;4203;48.144;14.118;2023-05-07T04:46:02;11.80;99.90
8332;DHT22;4203;48.144;14.118;2023-05-07T04:48:32;11.90;99.90
8332;DHT22;4203;48.144;14.118;2023-05-07T04:51:09;12.00;99.90
8332;DHT22;4203;48.144;14.118;2023-05-07T04:53:37;12.00;99.90
8332;DHT22;4203;48.144;14.118;2023-05-07T04:56:05;12.10;99.90
8332;DHT22;4203;48.144;14.118;2023-05-07T04:58:32;12.20;99.90
8332;DHT22;4203;48.144;14.118;2023-05-07T05:01:15;12.20;99.90
8332;DHT22;4203;48.144;14.118;2023-05-07T05:03:44;12.30;99.90
8332;DHT22;4203;48.144;14.118;2023-05-07T05:06:11;12.40;99.90
8332;DHT22;4203;48.144;14.118;2023-05-07T05:08:38;12.40;99.90
8332;DHT22;4203;48.144;14.118;2023-05-07T05:11:05;12.60;99.90
8332;DHT22;4203;48.144;14.118;2023-05-07T05:13:34;12.60;99.90
8332;DHT22;4203;48.144;14.118;2023-05-07T05:18:36;12.90;99.90
8332;DHT22;4203;48.144;14.118;2023-05-07T05:27:52;13.30;99.90
8332;DHT22;4203;48.144;14.118;2023-05-07T05:30:28;13.50;99.90
8332;DHT22;4203;48.144;14.118;2023-05-07T05:32:56;13.60;99.90
8332;DHT22;4203;48.144;14.118;2023-05-07T05:35:23;13.80;99.90
8332;DHT22;4203;48.144;14.118;2023-05-07T05:37:50;13.90;99.90
8332;DHT22;4203;48.144;14.118;2023-05-07T05:40:18;14.10;99.90
8332;DHT22;4203;48.144;14.118;2023-05-07T05:42:46;14.20;99.90
8332;DHT22;4203;48.144;14.118;2023-05-07T05:48:06;14.50;99.90
8332;DHT22;4203;48.144;14.118;2023-05-07T05:50:34;14.60;99.90
8332;DHT22;4203;48.144;14.118;2023-05-07T05:53:02;14.70;99.90
8332;DHT22;4203;48.144;14.118;2023-05-07T05:55:32;14.80;99.90
8332;DHT22;4203;48.144;14.118;2023-05-07T05:57:59;14.90;99.90
8332;DHT22;4203;48.144;14.118;2023-05-07T06:00:29;15.10;99.90
8332;DHT22;4203;48.144;14.118;2023-05-07T06:02:56;15.30;99.90
8332;DHT22;4203;48.144;14.118;2023-05-07T06:05:24;15.50;99.90
8332;DHT22;4203;48.144;14.118;2023-05-07T06:07:51;15.60;99.90
8332;DHT22;4203;48.144;14.118;2023-05-07T06:10:22;15.80;99.90
8332;DHT22;4203;48.144;14.118;2023-05-07T06:12:49;16.00;99.90
8332;DHT22;4203;48.144;14.118;2023-05-07T06:15:16;16.20;99.90
8332;DHT22;4203;48.144;14.118;2023-05-07T06:17:44;16.30;99.90
8332;DHT22;4203;48.144;14.118;2023-05-07T06:20:11;16.60;99.90
8332;DHT22;4203;48.144;14.118;2023-05-07T06:22:39;16.80;99.90
8332;DHT22;4203;48.144;14.118;2023-05-07T06:25:07;16.80;99.90
8332;DHT22;4203;48.144;14.118;2023-05-07T06:27:35;16.90;99.90
8332;DHT22;4203;48.144;14.118;2023-05-07T06:30:02;17.00;99.90
8332;DHT22;4203;48.144;14.118;2023-05-07T06:32:29;17.10;99.90
8332;DHT22;4203;48.144;14.118;2023-05-07T06:34:56;17.10;99.90
8332;DHT22;4203;48.144;14.118;2023-05-07T06:37:24;17.20;99.90
8332;DHT22;4203;48.144;14.118;2023-05-07T06:39:53;17.40;99.90
8332;DHT22;4203;48.144;14.118;2023-05-07T06:42:20;17.50;99.90
8332;DHT22;4203;48.144;14.118;2023-05-07T06:44:47;17.50;99.90
8332;DHT22;4203;48.144;14.118;2023-05-07T06:47:15;17.70;99.90
8332;DHT22;4203;48.144;14.118;2023-05-07T06:49:44;17.70;99.90
8332;DHT22;4203;48.144;14.118;2023-05-07T06:52:11;17.70;99.90
8332;DHT22;4203;48.144;14.118;2023-05-07T06:54:38;17.50;99.90
8332;DHT22;4203;48.144;14.118;2023-05-07T06:57:07;17.60;99.90
8332;DHT22;4203;48.144;14.118;2023-05-07T06:59:34;17.90;99.90
8332;DHT22;4203;48.144;14.118;2023-05-07T07:02:01;18.10;99.90
8332;DHT22;4203;48.144;14.118;2023-05-07T07:04:28;18.20;99.90
8332;DHT22;4203;48.144;14.118;2023-05-07T07:06:56;18.30;99.90
8332;DHT22;4203;48.144;14.118;2023-05-07T07:09:23;18.40;99.90
8332;DHT22;4203;48.144;14.118;2023-05-07T07:11:51;18.60;99.90
8332;DHT22;4203;48.144;14.118;2023-05-07T07:14:19;18.90;99.90
8332;DHT22;4203;48.144;14.118;2023-05-07T07:16:46;19.10;99.90
8332;DHT22;4203;48.144;14.118;2023-05-07T07:19:13;19.10;99.90
8332;DHT22;4203;48.144;14.118;2023-05-07T07:21:41;19.20;99.90
8332;DHT22;4203;48.144;14.118;2023-05-07T07:24:08;19.10;99.90
8332;DHT22;4203;48.144;14.118;2023-05-07T07:26:35;19.10;99.90
8332;DHT22;4203;48.144;14.118;2023-05-07T07:29:03;19.40;99.90
8332;DHT22;4203;48.144;14.118;2023-05-07T07:31:31;19.80;99.90
8332;DHT22;4203;48.144;14.118;2023-05-07T07:33:58;20.10;99.90
8332;DHT22;4203;48.144;14.118;2023-05-07T07:36:26;20.30;99.90
8332;DHT22;4203;48.144;14.118;2023-05-07T07:38:53;20.40;99.90
8332;DHT22;4203;48.144;14.118;2023-05-07T07:41:20;20.30;99.90
8332;DHT22;4203;48.144;14.118;2023-05-07T07:43:47;20.40;99.90
8332;DHT22;4203;48.144;14.118;2023-05-07T07:46:15;20.00;99.90
8332;DHT22;4203;48.144;14.118;2023-05-07T07:48:43;20.20;99.90
8332;DHT22;4203;48.144;14.118;2023-05-07T07:51:10;20.50;99.90
8332;DHT22;4203;48.144;14.118;2023-05-07T07:53:37;20.70;99.90
8332;DHT22;4203;48.144;14.118;2023-05-07T07:56:05;20.80;99.90
8332;DHT22;4203;48.144;14.118;2023-05-07T07:58:32;20.80;99.90
8332;DHT22;4203;48.144;14.118;2023-05-07T08:01:01;20.80;99.90
8332;DHT22;4203;48.144;14.118;2023-05-07T08:03:28;21.00;99.90
8332;DHT22;4203;48.144;14.118;2023-05-07T08:05:59;21.10;99.90
8332;DHT22;4203;48.144;14.118;2023-05-07T08:08:26;21.30;99.90
8332;DHT22;4203;48.144;14.118;2023-05-07T08:10:53;21.80;99.90
8332;DHT22;4203;48.144;14.118;2023-05-07T08:13:20;22.20;99.90
8332;DHT22;4203;48.144;14.118;2023-05-07T08:15:47;22.40;99.90
8332;DHT22;4203;48.144;14.118;2023-05-07T08:18:15;22.60;99.90
8332;DHT22;4203;48.144;14.118;2023-05-07T08:20:43;22.90;99.90
8332;DHT22;4203;48.144;14.118;2023-05-07T08:23:11;22.80;99.90
8332;DHT22;4203;48.144;14.118;2023-05-07T08:25:39;22.70;99.90
8332;DHT22;4203;48.144;14.118;2023-05-07T08:28:08;22.60;99.90
8332;DHT22;4203;48.144;14.118;2023-05-07T08:30:35;22.60;99.90
8332;DHT22;4203;48.144;14.118;2023-05-07T08:33:02;22.50;99.90
8332;DHT22;4203;48.144;14.118;2023-05-07T08:35:29;22.60;99.90
8332;DHT22;4203;48.144;14.118;2023-05-07T08:37:57;23.00;99.90
8332;DHT22;4203;48.144;14.118;2023-05-07T08:40:26;23.30;99.90
8332;DHT22;4203;48.144;14.118;2023-05-07T08:42:53;23.10;99.90
8332;DHT22;4203;48.144;14.118;2023-05-07T08:45:21;23.50;99.90
8332;DHT22;4203;48.144;14.118;2023-05-07T08:47:52;23.70;99.90
8332;DHT22;4203;48.144;14.118;2023-05-07T08:50:22;23.80;99.90
8332;DHT22;4203;48.144;14.118;2023-05-07T08:52:49;23.70;99.90
8332;DHT22;4203;48.144;14.118;2023-05-07T08:55:16;23.80;99.90
8332;DHT22;4203;48.144;14.118;2023-05-07T08:57:45;24.00;99.90
8332;DHT22;4203;48.144;14.118;2023-05-07T09:00:13;23.80;99.90
8332;DHT22;4203;48.144;14.118;2023-05-07T09:02:41;23.80;99.90
8332;DHT22;4203;48.144;14.118;2023-05-07T09:05:08;24.00;99.90
8332;DHT22;4203;48.144;14.118;2023-05-07T09:07:35;24.20;99.90
8332;DHT22;4203;48.144;14.118;2023-05-07T09:10:05;24.60;99.90
8332;DHT22;4203;48.144;14.118;2023-05-07T09:12:32;24.70;99.90
8332;DHT22;4203;48.144;14.118;2023-05-07T09:15:02;24.50;99.90
8332;DHT22;4203;48.144;14.118;2023-05-07T09:17:29;24.70;99.90
8332;DHT22;4203;48.144;14.118;2023-05-07T09:19:56;24.60;99.90
8332;DHT22;4203;48.144;14.118;2023-05-07T09:22:31;24.70;99.90
8332;DHT22;4203;48.144;14.118;2023-05-07T09:24:58;24.50;99.90
8332;DHT22;4203;48.144;14.118;2023-05-07T09:27:26;24.00;99.90
8332;DHT22;4203;48.144;14.118;2023-05-07T09:29:53;23.90;99.90
8332;DHT22;4203;48.144;14.118;2023-05-07T09:32:22;24.30;99.90
8332;DHT22;4203;48.144;14.118;2023-05-07T09:34:49;24.50;99.90
8332;DHT22;4203;48.144;14.118;2023-05-07T09:37:16;24.60;99.90
8332;DHT22;4203;48.144;14.118;2023-05-07T09:39:45;25.00;99.90
8332;DHT22;4203;48.144;14.118;2023-05-07T09:42:12;24.80;99.90
8332;DHT22;4203;48.144;14.118;2023-05-07T09:44:41;24.90;99.90
8332;DHT22;4203;48.144;14.118;2023-05-07T09:47:10;25.10;99.90
8332;DHT22;4203;48.144;14.118;2023-05-07T09:49:40;25.50;99.90
8332;DHT22;4203;48.144;14.118;2023-05-07T09:52:09;25.70;99.90
8332;DHT22;4203;48.144;14.118;2023-05-07T09:54:37;25.90;99.90
8332;DHT22;4203;48.144;14.118;2023-05-07T09:57:05;25.80;99.90
8332;DHT22;4203;48.144;14.118;2023-05-07T09:59:33;25.30;99.90
8332;DHT22;4203;48.144;14.118;2023-05-07T10:02:01;25.40;99.90
8332;DHT22;4203;48.144;14.118;2023-05-07T10:04:31;25.60;99.90
8332;DHT22;4203;48.144;14.118;2023-05-07T10:07:00;25.90;99.90
8332;DHT22;4203;48.144;14.118;2023-05-07T10:09:28;25.90;99.90
8332;DHT22;4203;48.144;14.118;2023-05-07T10:11:56;25.70;99.90
8332;DHT22;4203;48.144;14.118;2023-05-07T10:14:24;25.60;99.90
8332;DHT22;4203;48.144;14.118;2023-05-07T10:16:53;26.00;99.90
8332;DHT22;4203;48.144;14.118;2023-05-07T10:19:20;26.20;99.90
8332;DHT22;4203;48.144;14.118;2023-05-07T10:21:54;25.80;99.90
8332;DHT22;4203;48.144;14.118;2023-05-07T10:24:26;26.10;99.90
8332;DHT22;4203;48.144;14.118;2023-05-07T10:26:55;26.40;99.90
8332;DHT22;4203;48.144;14.118;2023-05-07T10:29:33;25.80;99.90
8332;DHT22;4203;48.144;14.118;2023-05-07T10:32:11;25.50;99.90
8332;DHT22;4203;48.144;14.118;2023-05-07T10:34:44;25.60;99.90
8332;DHT22;4203;48.144;14.118;2023-05-07T10:37:12;25.70;99.90
8332;DHT22;4203;48.144;14.118;2023-05-07T10:39:41;26.10;99.90
8332;DHT22;4203;48.144;14.118;2023-05-07T10:42:09;26.30;99.90
8332;DHT22;4203;48.144;14.118;2023-05-07T10:44:36;26.20;99.90
8332;DHT22;4203;48.144;14.118;2023-05-07T10:47:08;26.20;99.90
8332;DHT22;4203;48.144;14.118;2023-05-07T10:49:38;26.50;99.90
8332;DHT22;4203;48.144;14.118;2023-05-07T10:52:25;26.00;99.90
8332;DHT22;4203;48.144;14.118;2023-05-07T10:55:21;26.10;99.90
8332;DHT22;4203;48.144;14.118;2023-05-07T10:57:50;26.30;99.90
8332;DHT22;4203;48.144;14.118;2023-05-07T11:00:41;26.40;99.90
8332;DHT22;4203;48.144;14.118;2023-05-07T11:03:09;26.50;99.90
8332;DHT22;4203;48.144;14.118;2023-05-07T11:05:37;26.70;99.90
8332;DHT22;4203;48.144;14.118;2023-05-07T11:08:05;26.40;99.90
8332;DHT22;4203;48.144;14.118;2023-05-07T11:13:45;26.20;99.90
8332;DHT22;4203;48.144;14.118;2023-05-07T11:16:17;25.60;99.90
8332;DHT22;4203;48.144;14.118;2023-05-07T11:18:49;25.90;99.90
8332;DHT22;4203;48.144;14.118;2023-05-07T11:21:33;26.10;99.90
8332;DHT22;4203;48.144;14.118;2023-05-07T11:24:01;25.50;99.90
8332;DHT22;4203;48.144;14.118;2023-05-07T11:26:30;25.30;99.90
8332;DHT22;4203;48.144;14.118;2023-05-07T11:29:00;24.80;99.90
8332;DHT22;4203;48.144;14.118;2023-05-07T11:31:27;25.60;99.90
8332;DHT22;4203;48.144;14.118;2023-05-07T11:33:56;26.20;99.90
8332;DHT22;4203;48.144;14.118;2023-05-07T11:36:24;26.60;99.90
8332;DHT22;4203;48.144;14.118;2023-05-07T11:38:51;27.20;99.90
8332;DHT22;4203;48.144;14.118;2023-05-07T11:41:18;27.10;99.90
8332;DHT22;4203;48.144;14.118;2023-05-07T11:43:59;27.40;99.90
8332;DHT22;4203;48.144;14.118;2023-05-07T11:46:27;27.40;97.50
8332;DHT22;4203;48.144;14.118;2023-05-07T11:48:55;27.40;97.90
8332;DHT22;4203;48.144;14.118;2023-05-07T11:51:24;26.90;99.60
8332;DHT22;4203;48.144;14.118;2023-05-07T11:53:51;26.80;99.20
8332;DHT22;4203;48.144;14.118;2023-05-07T11:56:19;27.10;99.90
8332;DHT22;4203;48.144;14.118;2023-05-07T11:58:47;27.30;99.90
8332;DHT22;4203;48.144;14.118;2023-05-07T12:01:16;27.50;99.40
8332;DHT22;4203;48.144;14.118;2023-05-07T12:03:45;27.40;98.50
8332;DHT22;4203;48.144;14.118;2023-05-07T12:06:14;27.30;98.20
8332;DHT22;4203;48.144;14.118;2023-05-07T12:08:42;27.40;99.80
8332;DHT22;4203;48.144;14.118;2023-05-07T12:11:13;27.50;96.70
8332;DHT22;4203;48.144;14.118;2023-05-07T12:13:42;26.80;99.90
8332;DHT22;4203;48.144;14.118;2023-05-07T12:16:09;26.90;97.30
8332;DHT22;4203;48.144;14.118;2023-05-07T12:18:38;26.80;98.00
8332;DHT22;4203;48.144;14.118;2023-05-07T12:21:06;26.70;96.90
8332;DHT22;4203;48.144;14.118;2023-05-07T12:23:34;27.10;98.20
8332;DHT22;4203;48.144;14.118;2023-05-07T12:26:02;27.40;96.40
8332;DHT22;4203;48.144;14.118;2023-05-07T12:28:30;27.60;97.30
8332;DHT22;4203;48.144;14.118;2023-05-07T12:30:58;27.60;98.20
8332;DHT22;4203;48.144;14.118;2023-05-07T12:33:26;27.70;97.60
8332;DHT22;4203;48.144;14.118;2023-05-07T12:35:55;27.40;98.00
8332;DHT22;4203;48.144;14.118;2023-05-07T12:38:23;27.40;97.30
8332;DHT22;4203;48.144;14.118;2023-05-07T12:40:54;27.50;96.20
8332;DHT22;4203;48.144;14.118;2023-05-07T12:43:24;27.70;97.70
8332;DHT22;4203;48.144;14.118;2023-05-07T12:45:53;27.80;95.50
8332;DHT22;4203;48.144;14.118;2023-05-07T12:48:21;27.00;96.40
8332;DHT22;4203;48.144;14.118;2023-05-07T12:50:53;26.90;97.00
8332;DHT22;4203;48.144;14.118;2023-05-07T12:53:22;27.00;96.50
8332;DHT22;4203;48.144;14.118;2023-05-07T12:55:51;26.50;96.20
8332;DHT22;4203;48.144;14.118;2023-05-07T12:58:20;26.40;99.60
8332;DHT22;4203;48.144;14.118;2023-05-07T13:00:49;26.90;96.00
8332;DHT22;4203;48.144;14.118;2023-05-07T13:03:24;26.90;95.20
8332;DHT22;4203;48.144;14.118;2023-05-07T13:05:51;26.80;96.90
8332;DHT22;4203;48.144;14.118;2023-05-07T13:08:28;26.80;97.30
8332;DHT22;4203;48.144;14.118;2023-05-07T13:10:57;26.90;96.10
8332;DHT22;4203;48.144;14.118;2023-05-07T13:13:24;27.10;98.00
8332;DHT22;4203;48.144;14.118;2023-05-07T13:15:51;27.00;96.20
8332;DHT22;4203;48.144;14.118;2023-05-07T13:18:18;26.90;94.40
8332;DHT22;4203;48.144;14.118;2023-05-07T13:20:46;26.60;96.20
8332;DHT22;4203;48.144;14.118;2023-05-07T13:23:13;26.30;95.60
8332;DHT22;4203;48.144;14.118;2023-05-07T13:25:42;26.60;96.30
8332;DHT22;4203;48.144;14.118;2023-05-07T13:28:09;26.50;95.20
8332;DHT22;4203;48.144;14.118;2023-05-07T13:30:43;26.60;95.10
8332;DHT22;4203;48.144;14.118;2023-05-07T13:33:10;26.70;95.60
8332;DHT22;4203;48.144;14.118;2023-05-07T13:35:37;26.70;96.30
8332;DHT22;4203;48.144;14.118;2023-05-07T13:38:04;26.80;97.60
8332;DHT22;4203;48.144;14.118;2023-05-07T13:40:31;27.00;94.90
8332;DHT22;4203;48.144;14.118;2023-05-07T13:43:00;26.90;95.80
8332;DHT22;4203;48.144;14.118;2023-05-07T13:45:28;26.50;95.60
8332;DHT22;4203;48.144;14.118;2023-05-07T13:47:56;26.40;95.00
8332;DHT22;4203;48.144;14.118;2023-05-07T13:50:24;26.40;96.30
8332;DHT22;4203;48.144;14.118;2023-05-07T13:52:52;26.10;95.80
8332;DHT22;4203;48.144;14.118;2023-05-07T13:55:20;25.90;97.50
8332;DHT22;4203;48.144;14.118;2023-05-07T13:57:54;25.70;96.30
8332;DHT22;4203;48.144;14.118;2023-05-07T14:00:24;25.80;97.00
8332;DHT22;4203;48.144;14.118;2023-05-07T14:02:51;25.70;95.90
8332;DHT22;4203;48.144;14.118;2023-05-07T14:05:19;25.60;97.40
8332;DHT22;4203;48.144;14.118;2023-05-07T14:07:46;25.30;97.40
8332;DHT22;4203;48.144;14.118;2023-05-07T14:10:14;25.10;97.40
8332;DHT22;4203;48.144;14.118;2023-05-07T14:12:41;24.90;98.70
8332;DHT22;4203;48.144;14.118;2023-05-07T14:15:09;24.90;98.80
8332;DHT22;4203;48.144;14.118;2023-05-07T14:17:38;24.80;97.30
8332;DHT22;4203;48.144;14.118;2023-05-07T14:20:06;24.60;98.10
8332;DHT22;4203;48.144;14.118;2023-05-07T14:22:33;24.50;98.40
8332;DHT22;4203;48.144;14.118;2023-05-07T14:25:01;24.30;98.00
8332;DHT22;4203;48.144;14.118;2023-05-07T14:27:28;24.30;99.00
8332;DHT22;4203;48.144;14.118;2023-05-07T14:29:56;24.20;99.90
8332;DHT22;4203;48.144;14.118;2023-05-07T14:32:23;24.40;99.90
8332;DHT22;4203;48.144;14.118;2023-05-07T14:34:52;24.40;99.10
8332;DHT22;4203;48.144;14.118;2023-05-07T14:37:19;24.20;99.70
8332;DHT22;4203;48.144;14.118;2023-05-07T14:39:47;23.90;99.80
8332;DHT22;4203;48.144;14.118;2023-05-07T14:42:14;23.60;99.90
8332;DHT22;4203;48.144;14.118;2023-05-07T14:44:41;23.60;99.70
8332;DHT22;4203;48.144;14.118;2023-05-07T14:47:10;23.40;99.70
8332;DHT22;4203;48.144;14.118;2023-05-07T14:49:37;23.20;99.80
8332;DHT22;4203;48.144;14.118;2023-05-07T14:52:06;22.70;99.90
8332;DHT22;4203;48.144;14.118;2023-05-07T14:54:36;22.60;99.90
8332;DHT22;4203;48.144;14.118;2023-05-07T14:57:05;22.40;99.90
8332;DHT22;4203;48.144;14.118;2023-05-07T14:59:32;22.30;99.90
8332;DHT22;4203;48.144;14.118;2023-05-07T15:02:00;22.20;99.90
8332;DHT22;4203;48.144;14.118;2023-05-07T15:04:27;22.20;99.90
8332;DHT22;4203;48.144;14.118;2023-05-07T15:06:54;22.20;99.90
8332;DHT22;4203;48.144;14.118;2023-05-07T15:09:23;22.30;99.90
8332;DHT22;4203;48.144;14.118;2023-05-07T15:11:50;22.30;99.90
8332;DHT22;4203;48.144;14.118;2023-05-07T15:14:17;22.10;99.90
8332;DHT22;4203;48.144;14.118;2023-05-07T15:16:45;21.70;99.90
8332;DHT22;4203;48.144;14.118;2023-05-07T15:19:12;21.30;99.90
8332;DHT22;4203;48.144;14.118;2023-05-07T15:21:42;21.20;99.90
8332;DHT22;4203;48.144;14.118;2023-05-07T15:24:09;21.20;99.90
8332;DHT22;4203;48.144;14.118;2023-05-07T15:26:37;21.40;99.90
8332;DHT22;4203;48.144;14.118;2023-05-07T15:29:05;21.50;99.90
8332;DHT22;4203;48.144;14.118;2023-05-07T15:31:35;21.70;99.90
8332;DHT22;4203;48.144;14.118;2023-05-07T15:34:04;21.30;99.90
8332;DHT22;4203;48.144;14.118;2023-05-07T15:36:31;21.20;99.90
8332;DHT22;4203;48.144;14.118;2023-05-07T15:38:58;21.10;99.90
8332;DHT22;4203;48.144;14.118;2023-05-07T15:41:27;21.10;99.90
8332;DHT22;4203;48.144;14.118;2023-05-07T15:43:56;21.10;99.90
8332;DHT22;4203;48.144;14.118;2023-05-07T15:46:24;21.20;99.90
8332;DHT22;4203;48.144;14.118;2023-05-07T15:48:52;21.30;99.90
8332;DHT22;4203;48.144;14.118;2023-05-07T15:51:19;21.50;99.90
8332;DHT22;4203;48.144;14.118;2023-05-07T15:53:47;21.50;99.90
8332;DHT22;4203;48.144;14.118;2023-05-07T15:56:16;21.20;99.90
8332;DHT22;4203;48.144;14.118;2023-05-07T15:58:43;20.90;99.90
8332;DHT22;4203;48.144;14.118;2023-05-07T16:01:12;20.80;99.90
8332;DHT22;4203;48.144;14.118;2023-05-07T16:03:39;20.70;99.90
8332;DHT22;4203;48.144;14.118;2023-05-07T16:06:07;20.70;99.90
8332;DHT22;4203;48.144;14.118;2023-05-07T16:08:36;20.60;99.90
8332;DHT22;4203;48.144;14.118;2023-05-07T16:11:06;20.50;99.90
8332;DHT22;4203;48.144;14.118;2023-05-07T16:13:34;20.30;99.90
8332;DHT22;4203;48.144;14.118;2023-05-07T16:16:01;20.10;99.90
8332;DHT22;4203;48.144;14.118;2023-05-07T16:18:30;19.90;99.90
8332;DHT22;4203;48.144;14.118;2023-05-07T16:20:59;19.80;99.90
8332;DHT22;4203;48.144;14.118;2023-05-07T16:23:26;19.70;99.90
8332;DHT22;4203;48.144;14.118;2023-05-07T16:25:53;19.50;99.90
8332;DHT22;4203;48.144;14.118;2023-05-07T16:28:20;19.50;99.90
8332;DHT22;4203;48.144;14.118;2023-05-07T16:30:49;19.40;99.90
8332;DHT22;4203;48.144;14.118;2023-05-07T16:33:16;19.30;99.90
8332;DHT22;4203;48.144;14.118;2023-05-07T16:35:50;19.20;99.90
8332;DHT22;4203;48.144;14.118;2023-05-07T16:38:17;19.20;99.90
8332;DHT22;4203;48.144;14.118;2023-05-07T16:40:45;19.10;99.90
8332;DHT22;4203;48.144;14.118;2023-05-07T16:43:12;18.90;99.90
8332;DHT22;4203;48.144;14.118;2023-05-07T16:45:39;18.80;99.90
8332;DHT22;4203;48.144;14.118;2023-05-07T16:48:06;18.90;99.90
8332;DHT22;4203;48.144;14.118;2023-05-07T16:50:33;18.90;99.90
8332;DHT22;4203;48.144;14.118;2023-05-07T16:53:04;18.90;99.90
8332;DHT22;4203;48.144;14.118;2023-05-07T16:55:31;18.90;99.90
8332;DHT22;4203;48.144;14.118;2023-05-07T16:58:03;18.80;99.90
8332;DHT22;4203;48.144;14.118;2023-05-07T17:00:30;18.70;99.90
8332;DHT22;4203;48.144;14.118;2023-05-07T17:02:57;18.70;99.90
8332;DHT22;4203;48.144;14.118;2023-05-07T17:05:25;18.60;99.90
8332;DHT22;4203;48.144;14.118;2023-05-07T17:07:52;18.60;99.90
8332;DHT22;4203;48.144;14.118;2023-05-07T17:10:21;18.40;99.90
8332;DHT22;4203;48.144;14.118;2023-05-07T17:12:49;18.40;99.90